sensor_id;sensor_type;location;lat;lon;timestamp;pressure;altitude;pressure_sealevel;temperature;humidity
5651;BME280;40241;52.684;9.758;2024-03-02T00:01:03;100168.88;;;8.10;57.52
5651;BME280;40241;52.684;9.758;2024-03-02T00:03:28;100168.88;;;8.10;57.58
5651;BME280;40241;52.684;9.758;2024-03-02T00:05:54;100159.84;;;8.09;57.63
5651;BME280;40241;52.684;9.758;2024-03-02T00:08:23;100151.06;;;8.11;57.76
5651;BME280;40241;52.684;9.758;2024-03-02T00:10:57;100157.34;;;8.11;57.83
5651;BME280;40241;52.684;9.758;2024-03-02T00:13:23;100160.09;;;8.11;57.64
5651;BME280;40241;52.684;9.758;2024-03-02T00:15:53;100161.56;;;8.12;57.87
5651;BME280;40241;52.684;9.758;2024-03-02T00:18:32;100168.34;;;8.11;58.16
5651;BME280;40241;52.684;9.758;2024-03-02T00:20:59;100162.84;;;8.11;57.74
5651;BME280;40241;52.684;9.758;2024-03-02T00:23:29;100173.13;;;8.11;57.70
5651;BME280;40241;52.684;9.758;2024-03-02T00:25:55;100166.38;;;8.06;57.75
5651;BME280;40241;52.684;9.758;2024-03-02T00:28:36;100169.19;;;8.01;58.12
5651;BME280;40241;52.684;9.758;2024-03-02T00:31:06;100165.66;;;8.00;57.85
5651;BME280;40241;52.684;9.758;2024-03-02T00:33:34;100166.91;;;7.99;58.01
5651;BME280;40241;52.684;9.758;2024-03-02T00:36:02;100166.44;;;8.01;58.12
5651;BME280;40241;52.684;9.758;2024-03-02T00:38:29;100171.94;;;8.01;57.89
5651;BME280;40241;52.684;9.758;2024-03-02T00:40:56;100167.16;;;8.01;58.07
5651;BME280;40241;52.684;9.758;2024-03-02T00:43:47;100167.16;;;8.01;58.59
5651;BME280;40241;52.684;9.758;2024-03-02T00:46:15;100174.91;;;8.03;58.11
5651;BME280;40241;52.684;9.758;2024-03-02T00:48:48;100169.66;;;8.05;58.36
5651;BME280;40241;52.684;9.758;2024-03-02T00:51:14;100170.63;;;8.07;58.15
5651;BME280;40241;52.684;9.758;2024-03-02T00:53:39;100171.38;;;8.08;58.01
5651;BME280;40241;52.684;9.758;2024-03-02T00:56:09;100176.88;;;8.08;57.97
5651;BME280;40241;52.684;9.758;2024-03-02T00:58:34;100176.88;;;8.08;58.01
5651;BME280;40241;52.684;9.758;2024-03-02T01:00:59;100172.34;;;8.10;58.12
5651;BME280;40241;52.684;9.758;2024-03-02T01:03:25;100172.34;;;8.10;58.14
5651;BME280;40241;52.684;9.758;2024-03-02T01:05:51;100165.59;;;8.11;58.15
5651;BME280;40241;52.684;9.758;2024-03-02T01:08:16;100178.09;;;8.12;58.07
5651;BME280;40241;52.684;9.758;2024-03-02T01:10:41;100173.88;;;8.11;58.08
5651;BME280;40241;52.684;9.758;2024-03-02T01:13:07;100178.09;;;8.12;58.09
5651;BME280;40241;52.684;9.758;2024-03-02T01:15:33;100174.09;;;8.13;58.21
5651;BME280;40241;52.684;9.758;2024-03-02T01:17:58;100176.09;;;8.13;58.07
5651;BME280;40241;52.684;9.758;2024-03-02T01:20:23;100178.38;;;8.09;57.95
5651;BME280;40241;52.684;9.758;2024-03-02T01:22:50;100176.88;;;8.08;58.21
5651;BME280;40241;52.684;9.758;2024-03-02T01:25:15;100173.16;;;8.05;58.01
5651;BME280;40241;52.684;9.758;2024-03-02T01:27:40;100167.16;;;8.01;58.02
5651;BME280;40241;52.684;9.758;2024-03-02T01:30:06;100169.66;;;7.99;58.13
5651;BME280;40241;52.684;9.758;2024-03-02T01:32:32;100164.91;;;8.00;58.12
5651;BME280;40241;52.684;9.758;2024-03-02T01:34:57;100161.94;;;7.98;58.16
5651;BME280;40241;52.684;9.758;2024-03-02T01:37:22;100163.69;;;7.95;58.36
5651;BME280;40241;52.684;9.758;2024-03-02T01:39:47;100159.44;;;7.94;58.42
5651;BME280;40241;52.684;9.758;2024-03-02T01:42:13;100153.72;;;7.92;58.37
5651;BME280;40241;52.684;9.758;2024-03-02T01:44:40;100161.97;;;7.92;58.16
5651;BME280;40241;52.684;9.758;2024-03-02T01:47:05;100149.44;;;7.91;58.17
5651;BME280;40241;52.684;9.758;2024-03-02T01:49:30;100154.19;;;7.91;58.46
5651;BME280;40241;52.684;9.758;2024-03-02T01:51:56;100146.97;;;7.88;58.29
5651;BME280;40241;52.684;9.758;2024-03-02T01:54:21;100142.72;;;7.87;58.49
5651;BME280;40241;52.684;9.758;2024-03-02T01:56:47;100141.72;;;7.84;58.46
5651;BME280;40241;52.684;9.758;2024-03-02T01:59:12;100137.97;;;7.81;58.49
5651;BME280;40241;52.684;9.758;2024-03-02T02:01:38;100133.50;;;7.78;58.42
5651;BME280;40241;52.684;9.758;2024-03-02T02:04:04;100127.28;;;7.72;58.44
5651;BME280;40241;52.684;9.758;2024-03-02T02:06:32;100137.31;;;7.70;58.55
5651;BME280;40241;52.684;9.758;2024-03-02T02:08:57;100137.06;;;7.68;58.57
5651;BME280;40241;52.684;9.758;2024-03-02T02:11:23;100126.31;;;7.64;58.65
5651;BME280;40241;52.684;9.758;2024-03-02T02:13:48;100125.31;;;7.62;58.56
5651;BME280;40241;52.684;9.758;2024-03-02T02:16:13;100122.84;;;7.58;58.66
5651;BME280;40241;52.684;9.758;2024-03-02T02:18:38;100121.09;;;7.55;58.59
5651;BME280;40241;52.684;9.758;2024-03-02T02:21:04;100118.84;;;7.54;58.80
5651;BME280;40241;52.684;9.758;2024-03-02T02:23:29;100118.34;;;7.55;58.71
5651;BME280;40241;52.684;9.758;2024-03-02T02:25:55;100118.34;;;7.55;58.80
5651;BME280;40241;52.684;9.758;2024-03-02T02:28:20;100121.09;;;7.55;58.83
5651;BME280;40241;52.684;9.758;2024-03-02T02:30:46;100118.56;;;7.57;58.68
5651;BME280;40241;52.684;9.758;2024-03-02T02:33:11;100122.59;;;7.56;58.56
5651;BME280;40241;52.684;9.758;2024-03-02T02:35:36;100114.88;;;7.55;58.54
5651;BME280;40241;52.684;9.758;2024-03-02T02:38:02;100121.59;;;7.54;58.57
5651;BME280;40241;52.684;9.758;2024-03-02T02:40:28;100115.13;;;7.51;58.57
5651;BME280;40241;52.684;9.758;2024-03-02T02:42:56;100113.41;;;7.48;58.65
5651;BME280;40241;52.684;9.758;2024-03-02T02:45:21;100110.88;;;7.45;58.67
5651;BME280;40241;52.684;9.758;2024-03-02T02:47:46;100110.94;;;7.39;58.65
5651;BME280;40241;52.684;9.758;2024-03-02T02:50:12;100113.19;;;7.35;58.68
5651;BME280;40241;52.684;9.758;2024-03-02T02:52:39;100112.22;;;7.33;58.78
5651;BME280;40241;52.684;9.758;2024-03-02T02:55:07;100115.97;;;7.30;58.96
5651;BME280;40241;52.684;9.758;2024-03-02T02:57:33;100112.97;;;7.28;58.97
5651;BME280;40241;52.684;9.758;2024-03-02T03:00:06;100110.97;;;7.28;58.79
5651;BME280;40241;52.684;9.758;2024-03-02T03:02:38;100105.72;;;7.25;58.95
5651;BME280;40241;52.684;9.758;2024-03-02T03:05:07;100098.50;;;7.22;58.97
5651;BME280;40241;52.684;9.758;2024-03-02T03:07:33;100105.00;;;7.19;58.92
5651;BME280;40241;52.684;9.758;2024-03-02T03:10:03;100098.75;;;7.18;58.94
5651;BME280;40241;52.684;9.758;2024-03-02T03:12:29;100105.50;;;7.17;58.95
5651;BME280;40241;52.684;9.758;2024-03-02T03:14:56;100101.25;;;7.16;59.03
5651;BME280;40241;52.684;9.758;2024-03-02T03:17:22;100093.28;;;7.13;59.01
5651;BME280;40241;52.684;9.758;2024-03-02T03:19:48;100104.78;;;7.11;59.13
5651;BME280;40241;52.684;9.758;2024-03-02T03:22:13;100108.53;;;7.08;59.03
5651;BME280;40241;52.684;9.758;2024-03-02T03:24:39;100114.78;;;7.09;59.10
5651;BME280;40241;52.684;9.758;2024-03-02T03:27:04;100107.31;;;7.03;58.97
5651;BME280;40241;52.684;9.758;2024-03-02T03:29:29;100112.84;;;6.98;59.11
5651;BME280;40241;52.684;9.758;2024-03-02T03:31:55;100107.56;;;6.94;59.08
5651;BME280;40241;52.684;9.758;2024-03-02T03:34:20;100103.34;;;6.88;58.99
5651;BME280;40241;52.684;9.758;2024-03-02T03:36:45;100104.84;;;6.83;59.21
5651;BME280;40241;52.684;9.758;2024-03-02T03:39:10;100105.88;;;6.80;59.18
5651;BME280;40241;52.684;9.758;2024-03-02T03:41:36;100103.38;;;6.77;59.17
5651;BME280;40241;52.684;9.758;2024-03-02T03:44:01;100094.16;;;6.69;59.25
5651;BME280;40241;52.684;9.758;2024-03-02T03:46:26;100091.66;;;6.65;59.39
5651;BME280;40241;52.684;9.758;2024-03-02T03:48:52;100099.66;;;6.63;59.42
5651;BME280;40241;52.684;9.758;2024-03-02T03:51:17;100088.41;;;6.61;59.51
5651;BME280;40241;52.684;9.758;2024-03-02T03:53:42;100092.66;;;6.57;59.40
5651;BME280;40241;52.684;9.758;2024-03-02T03:56:08;100093.13;;;6.55;59.52
5651;BME280;40241;52.684;9.758;2024-03-02T03:58:33;100092.66;;;6.51;59.65
5651;BME280;40241;52.684;9.758;2024-03-02T04:00:58;100091.63;;;6.49;59.61
5651;BME280;40241;52.684;9.758;2024-03-02T04:03:24;100089.66;;;6.49;59.71
5651;BME280;40241;52.684;9.758;2024-03-02T04:05:49;100089.66;;;6.49;59.55
5651;BME280;40241;52.684;9.758;2024-03-02T04:08:15;100097.66;;;6.47;59.66
5651;BME280;40241;52.684;9.758;2024-03-02T04:10:40;100092.16;;;6.47;59.53
5651;BME280;40241;52.684;9.758;2024-03-02T04:13:07;100092.16;;;6.47;59.72
5651;BME280;40241;52.684;9.758;2024-03-02T04:15:32;100084.41;;;6.46;59.70
5651;BME280;40241;52.684;9.758;2024-03-02T04:17:58;100084.91;;;6.44;59.70
5651;BME280;40241;52.684;9.758;2024-03-02T04:20:23;100082.16;;;6.44;59.62
5651;BME280;40241;52.684;9.758;2024-03-02T04:22:48;100091.66;;;6.43;59.90
5651;BME280;40241;52.684;9.758;2024-03-02T04:25:14;100091.66;;;6.43;59.79
5651;BME280;40241;52.684;9.758;2024-03-02T04:27:39;100101.91;;;6.43;59.96
5651;BME280;40241;52.684;9.758;2024-03-02T04:30:05;100096.66;;;6.45;59.76
5651;BME280;40241;52.684;9.758;2024-03-02T04:32:30;100094.41;;;6.43;59.71
5651;BME280;40241;52.684;9.758;2024-03-02T04:34:56;100095.66;;;6.42;59.75
5651;BME280;40241;52.684;9.758;2024-03-02T04:37:22;100098.16;;;6.40;59.78
5651;BME280;40241;52.684;9.758;2024-03-02T04:39:47;100095.41;;;6.35;59.64
5651;BME280;40241;52.684;9.758;2024-03-02T04:42:13;100101.66;;;6.29;59.89
5651;BME280;40241;52.684;9.758;2024-03-02T04:44:38;100105.91;;;6.25;59.93
5651;BME280;40241;52.684;9.758;2024-03-02T04:47:04;100113.88;;;6.23;59.99
5651;BME280;40241;52.684;9.758;2024-03-02T04:49:30;100108.16;;;6.21;59.94
5651;BME280;40241;52.684;9.758;2024-03-02T04:51:55;100110.66;;;6.19;60.01
5651;BME280;40241;52.684;9.758;2024-03-02T04:54:22;100115.88;;;6.17;59.98
5651;BME280;40241;52.684;9.758;2024-03-02T04:56:47;100116.66;;;6.17;59.71
5651;BME280;40241;52.684;9.758;2024-03-02T04:59:18;100113.63;;;6.15;59.89
5651;BME280;40241;52.684;9.758;2024-03-02T05:01:44;100114.13;;;6.08;59.80
5651;BME280;40241;52.684;9.758;2024-03-02T05:04:10;100119.59;;;6.03;59.85
5651;BME280;40241;52.684;9.758;2024-03-02T05:06:39;100120.09;;;5.96;59.98
5651;BME280;40241;52.684;9.758;2024-03-02T05:09:10;100112.63;;;5.91;59.98
5651;BME280;40241;52.684;9.758;2024-03-02T05:11:36;100113.59;;;5.88;59.97
5651;BME280;40241;52.684;9.758;2024-03-02T05:14:05;100112.84;;;5.82;59.87
5651;BME280;40241;52.684;9.758;2024-03-02T05:16:36;100108.84;;;5.77;60.05
5651;BME280;40241;52.684;9.758;2024-03-02T05:19:03;100117.06;;;5.72;60.06
5651;BME280;40241;52.684;9.758;2024-03-02T05:21:32;100108.06;;;5.66;60.10
5651;BME280;40241;52.684;9.758;2024-03-02T05:23:57;100111.56;;;5.61;60.16
5651;BME280;40241;52.684;9.758;2024-03-02T05:26:22;100114.53;;;5.57;60.13
5651;BME280;40241;52.684;9.758;2024-03-02T05:28:47;100114.78;;;5.53;60.22
5651;BME280;40241;52.684;9.758;2024-03-02T05:31:15;100106.28;;;5.51;60.29
5651;BME280;40241;52.684;9.758;2024-03-02T05:33:41;100110.78;;;5.49;60.23
5651;BME280;40241;52.684;9.758;2024-03-02T05:36:07;100100.00;;;5.45;60.33
5651;BME280;40241;52.684;9.758;2024-03-02T05:38:34;100101.53;;;5.41;60.30
5651;BME280;40241;52.684;9.758;2024-03-02T05:41:00;100104.47;;;5.37;60.20
5651;BME280;40241;52.684;9.758;2024-03-02T05:43:25;100107.72;;;5.36;60.34
5651;BME280;40241;52.684;9.758;2024-03-02T05:45:51;100107.94;;;5.32;60.39
5651;BME280;40241;52.684;9.758;2024-03-02T05:48:16;100106.97;;;5.30;60.40
5651;BME280;40241;52.684;9.758;2024-03-02T05:50:41;100104.69;;;5.28;60.25
5651;BME280;40241;52.684;9.758;2024-03-02T05:53:07;100109.66;;;5.24;60.45
5651;BME280;40241;52.684;9.758;2024-03-02T05:55:32;100106.94;;;5.24;60.46
5651;BME280;40241;52.684;9.758;2024-03-02T05:57:58;100104.44;;;5.21;60.54
5651;BME280;40241;52.684;9.758;2024-03-02T06:00:24;100103.38;;;5.13;60.61
5651;BME280;40241;52.684;9.758;2024-03-02T06:02:50;100101.84;;;5.06;60.77
5651;BME280;40241;52.684;9.758;2024-03-02T06:05:15;100118.31;;;5.06;60.64
5651;BME280;40241;52.684;9.758;2024-03-02T06:07:42;100119.81;;;5.07;60.82
5651;BME280;40241;52.684;9.758;2024-03-02T06:10:08;100116.56;;;5.09;60.66
5651;BME280;40241;52.684;9.758;2024-03-02T06:12:34;100123.56;;;5.10;60.76
5651;BME280;40241;52.684;9.758;2024-03-02T06:14:59;100127.53;;;5.09;60.80
5651;BME280;40241;52.684;9.758;2024-03-02T06:17:25;100124.06;;;5.08;60.79
5651;BME280;40241;52.684;9.758;2024-03-02T06:19:50;100120.78;;;5.04;60.66
5651;BME280;40241;52.684;9.758;2024-03-02T06:22:15;100114.31;;;5.02;60.56
5651;BME280;40241;52.684;9.758;2024-03-02T06:24:41;100124.28;;;4.99;60.59
5651;BME280;40241;52.684;9.758;2024-03-02T06:27:06;100123.25;;;4.97;60.82
5651;BME280;40241;52.684;9.758;2024-03-02T06:29:34;100122.50;;;4.96;60.97
5651;BME280;40241;52.684;9.758;2024-03-02T06:32:00;100127.72;;;4.94;60.94
5651;BME280;40241;52.684;9.758;2024-03-02T06:34:25;100134.72;;;4.95;60.88
5651;BME280;40241;52.684;9.758;2024-03-02T06:36:51;100141.19;;;4.98;61.02
5651;BME280;40241;52.684;9.758;2024-03-02T06:39:16;100137.47;;;5.01;60.87
5651;BME280;40241;52.684;9.758;2024-03-02T06:41:41;100144.22;;;5.05;60.95
5651;BME280;40241;52.684;9.758;2024-03-02T06:44:07;100146.72;;;5.09;60.96
5651;BME280;40241;52.684;9.758;2024-03-02T06:46:33;100145.00;;;5.11;60.89
5651;BME280;40241;52.684;9.758;2024-03-02T06:48:58;100149.25;;;5.12;60.91
5651;BME280;40241;52.684;9.758;2024-03-02T06:51:23;100148.25;;;5.15;61.10
5651;BME280;40241;52.684;9.758;2024-03-02T06:53:49;100152.03;;;5.18;61.05
5651;BME280;40241;52.684;9.758;2024-03-02T06:56:14;100158.03;;;5.22;60.93
5651;BME280;40241;52.684;9.758;2024-03-02T06:58:39;100161.56;;;5.28;60.96
5651;BME280;40241;52.684;9.758;2024-03-02T07:01:05;100160.06;;;5.32;61.00
5651;BME280;40241;52.684;9.758;2024-03-02T07:03:30;100155.38;;;5.38;60.86
5651;BME280;40241;52.684;9.758;2024-03-02T07:05:55;100154.63;;;5.43;60.94
5651;BME280;40241;52.684;9.758;2024-03-02T07:08:22;100162.38;;;5.50;61.22
5651;BME280;40241;52.684;9.758;2024-03-02T07:10:47;100164.66;;;5.57;61.00
5651;BME280;40241;52.684;9.758;2024-03-02T07:13:12;100158.72;;;5.65;61.03
5651;BME280;40241;52.684;9.758;2024-03-02T07:15:38;100163.44;;;5.70;60.89
5651;BME280;40241;52.684;9.758;2024-03-02T07:18:22;100170.47;;;5.76;60.94
5651;BME280;40241;52.684;9.758;2024-03-02T07:20:47;100171.97;;;5.83;60.92
5651;BME280;40241;52.684;9.758;2024-03-02T07:23:14;100175.00;;;5.90;60.91
5651;BME280;40241;52.684;9.758;2024-03-02T07:25:40;100175.75;;;5.96;60.88
5651;BME280;40241;52.684;9.758;2024-03-02T07:28:05;100181.53;;;6.04;60.99
5651;BME280;40241;52.684;9.758;2024-03-02T07:30:32;100184.53;;;6.11;61.03
5651;BME280;40241;52.684;9.758;2024-03-02T07:32:57;100183.28;;;6.18;60.95
5651;BME280;40241;52.684;9.758;2024-03-02T07:35:24;100184.06;;;6.24;60.79
5651;BME280;40241;52.684;9.758;2024-03-02T07:37:53;100189.03;;;6.31;61.03
5651;BME280;40241;52.684;9.758;2024-03-02T07:40:18;100183.56;;;6.37;61.02
5651;BME280;40241;52.684;9.758;2024-03-02T07:42:45;100182.09;;;6.41;60.95
5651;BME280;40241;52.684;9.758;2024-03-02T07:45:10;100190.31;;;6.47;60.94
5651;BME280;40241;52.684;9.758;2024-03-02T07:47:36;100198.31;;;6.50;60.91
5651;BME280;40241;52.684;9.758;2024-03-02T07:50:02;100193.81;;;6.53;60.95
5651;BME280;40241;52.684;9.758;2024-03-02T07:52:28;100188.84;;;6.57;60.96
5651;BME280;40241;52.684;9.758;2024-03-02T07:54:54;100194.84;;;6.61;61.01
5651;BME280;40241;52.684;9.758;2024-03-02T07:57:21;100198.34;;;6.61;61.05
5651;BME280;40241;52.684;9.758;2024-03-02T07:59:46;100200.59;;;6.68;60.92
5651;BME280;40241;52.684;9.758;2024-03-02T08:02:12;100195.59;;;6.72;61.00
5651;BME280;40241;52.684;9.758;2024-03-02T08:04:37;100200.09;;;6.81;61.08
5651;BME280;40241;52.684;9.758;2024-03-02T08:07:03;100210.34;;;6.86;61.14
5651;BME280;40241;52.684;9.758;2024-03-02T08:09:29;100199.59;;;6.93;61.04
5651;BME280;40241;52.684;9.758;2024-03-02T08:11:55;100206.06;;;7.01;61.27
5651;BME280;40241;52.684;9.758;2024-03-02T08:14:21;100204.53;;;7.12;61.16
5651;BME280;40241;52.684;9.758;2024-03-02T08:16:47;100204.53;;;7.23;61.28
5651;BME280;40241;52.684;9.758;2024-03-02T08:19:12;100208.00;;;7.34;61.34
5651;BME280;40241;52.684;9.758;2024-03-02T08:21:37;100201.94;;;7.47;61.31
5651;BME280;40241;52.684;9.758;2024-03-02T08:24:03;100199.16;;;7.58;61.11
5651;BME280;40241;52.684;9.758;2024-03-02T08:26:29;100211.13;;;7.71;61.10
5651;BME280;40241;52.684;9.758;2024-03-02T08:28:56;100215.06;;;7.87;60.92
5651;BME280;40241;52.684;9.758;2024-03-02T08:31:22;100206.75;;;7.98;60.91
5651;BME280;40241;52.684;9.758;2024-03-02T08:33:47;100212.69;;;8.13;60.88
5651;BME280;40241;52.684;9.758;2024-03-02T08:36:12;100214.88;;;8.26;60.91
5651;BME280;40241;52.684;9.758;2024-03-02T08:38:38;100224.06;;;8.39;60.54
5651;BME280;40241;52.684;9.758;2024-03-02T08:41:04;100230.50;;;8.53;60.68
5651;BME280;40241;52.684;9.758;2024-03-02T08:43:29;100227.88;;;8.66;60.60
5651;BME280;40241;52.684;9.758;2024-03-02T08:45:55;100222.50;;;8.79;60.25
5651;BME280;40241;52.684;9.758;2024-03-02T08:48:20;100212.34;;;8.93;60.35
5651;BME280;40241;52.684;9.758;2024-03-02T08:50:46;100216.22;;;9.08;59.97
5651;BME280;40241;52.684;9.758;2024-03-02T08:53:11;100218.38;;;9.21;59.81
5651;BME280;40241;52.684;9.758;2024-03-02T08:55:37;100226.50;;;9.32;59.89
5651;BME280;40241;52.684;9.758;2024-03-02T08:58:02;100220.66;;;9.41;59.49
5651;BME280;40241;52.684;9.758;2024-03-02T09:00:28;100217.31;;;9.48;59.58
5651;BME280;40241;52.684;9.758;2024-03-02T09:02:53;100220.50;;;9.58;59.32
5651;BME280;40241;52.684;9.758;2024-03-02T09:05:19;100219.63;;;9.68;59.17
5651;BME280;40241;52.684;9.758;2024-03-02T09:07:44;100214.50;;;9.78;59.03
5651;BME280;40241;52.684;9.758;2024-03-02T09:10:10;100221.13;;;9.88;58.96
5651;BME280;40241;52.684;9.758;2024-03-02T09:12:35;100220.47;;;10.00;58.83
5651;BME280;40241;52.684;9.758;2024-03-02T09:15:01;100224.06;;;10.14;58.70
5651;BME280;40241;52.684;9.758;2024-03-02T09:17:28;100228.66;;;10.25;58.55
5651;BME280;40241;52.684;9.758;2024-03-02T09:19:53;100220.75;;;10.34;58.34
5651;BME280;40241;52.684;9.758;2024-03-02T09:22:19;100219.84;;;10.45;58.29
5651;BME280;40241;52.684;9.758;2024-03-02T09:24:44;100222.94;;;10.54;58.14
5651;BME280;40241;52.684;9.758;2024-03-02T09:27:10;100218.00;;;10.66;57.96
5651;BME280;40241;52.684;9.758;2024-03-02T09:29:35;100221.34;;;10.77;57.76
5651;BME280;40241;52.684;9.758;2024-03-02T09:32:01;100232.31;;;10.83;57.53
5651;BME280;40241;52.684;9.758;2024-03-02T09:34:26;100229.16;;;10.92;57.44
5651;BME280;40241;52.684;9.758;2024-03-02T09:36:52;100230.97;;;11.03;57.20
5651;BME280;40241;52.684;9.758;2024-03-02T09:39:17;100224.06;;;11.09;56.87
5651;BME280;40241;52.684;9.758;2024-03-02T09:41:43;100226.97;;;11.17;56.87
5651;BME280;40241;52.684;9.758;2024-03-02T09:44:09;100231.34;;;11.25;56.86
5651;BME280;40241;52.684;9.758;2024-03-02T09:46:34;100233.91;;;11.36;56.64
5651;BME280;40241;52.684;9.758;2024-03-02T09:49:02;100229.22;;;11.44;56.31
5651;BME280;40241;52.684;9.758;2024-03-02T09:51:27;100225.59;;;11.49;56.01
5651;BME280;40241;52.684;9.758;2024-03-02T09:53:54;100233.78;;;11.55;56.12
5651;BME280;40241;52.684;9.758;2024-03-02T09:56:21;100223.69;;;11.58;56.00
5651;BME280;40241;52.684;9.758;2024-03-02T09:58:47;100236.91;;;11.65;55.99
5651;BME280;40241;52.684;9.758;2024-03-02T10:01:12;100237.31;;;11.69;55.77
5651;BME280;40241;52.684;9.758;2024-03-02T10:03:38;100233.50;;;11.72;55.64
5651;BME280;40241;52.684;9.758;2024-03-02T10:06:20;100232.09;;;11.78;54.68
5651;BME280;40241;52.684;9.758;2024-03-02T10:08:46;100233.47;;;11.85;55.52
5651;BME280;40241;52.684;9.758;2024-03-02T10:11:29;100237.19;;;11.87;54.45
5651;BME280;40241;52.684;9.758;2024-03-02T10:14:11;100246.16;;;11.93;54.13
5651;BME280;40241;52.684;9.758;2024-03-02T10:16:42;100246.94;;;11.94;55.00
5651;BME280;40241;52.684;9.758;2024-03-02T10:19:21;100250.94;;;11.93;53.53
5651;BME280;40241;52.684;9.758;2024-03-02T10:21:48;100248.41;;;11.95;54.95
5651;BME280;40241;52.684;9.758;2024-03-02T10:24:15;100252.34;;;11.99;54.72
5651;BME280;40241;52.684;9.758;2024-03-02T10:26:40;100256.63;;;12.00;54.58
5651;BME280;40241;52.684;9.758;2024-03-02T10:29:08;100255.31;;;12.01;54.53
5651;BME280;40241;52.684;9.758;2024-03-02T10:31:33;100247.41;;;12.05;54.28
5651;BME280;40241;52.684;9.758;2024-03-02T10:33:59;100262.88;;;12.01;54.24
5651;BME280;40241;52.684;9.758;2024-03-02T10:36:25;100258.19;;;12.09;54.03
5651;BME280;40241;52.684;9.758;2024-03-02T10:38:51;100249.44;;;12.18;53.97
5651;BME280;40241;52.684;9.758;2024-03-02T10:41:23;100252.81;;;12.24;53.88
5651;BME280;40241;52.684;9.758;2024-03-02T10:43:48;100251.22;;;12.29;53.80
5651;BME280;40241;52.684;9.758;2024-03-02T10:46:15;100249.81;;;12.35;53.66
5651;BME280;40241;52.684;9.758;2024-03-02T10:48:44;100244.88;;;12.41;53.34
5651;BME280;40241;52.684;9.758;2024-03-02T10:51:11;100248.06;;;12.45;53.35
5651;BME280;40241;52.684;9.758;2024-03-02T10:53:36;100256.47;;;12.53;53.31
5651;BME280;40241;52.684;9.758;2024-03-02T10:56:03;100244.91;;;12.62;52.87
5651;BME280;40241;52.684;9.758;2024-03-02T10:58:33;100248.81;;;12.66;52.90
5651;BME280;40241;52.684;9.758;2024-03-02T11:01:03;100243.19;;;12.79;52.17
5651;BME280;40241;52.684;9.758;2024-03-02T11:03:35;100250.84;;;12.86;51.85
5651;BME280;40241;52.684;9.758;2024-03-02T11:06:03;100248.69;;;12.92;52.44
5651;BME280;40241;52.684;9.758;2024-03-02T11:08:33;100243.63;;;13.04;52.45
5651;BME280;40241;52.684;9.758;2024-03-02T11:11:06;100249.06;;;13.10;51.04
5651;BME280;40241;52.684;9.758;2024-03-02T11:13:33;100245.72;;;13.11;51.91
5651;BME280;40241;52.684;9.758;2024-03-02T11:16:09;100253.97;;;13.24;51.14
5651;BME280;40241;52.684;9.758;2024-03-02T11:18:38;100253.50;;;13.33;51.83
5651;BME280;40241;52.684;9.758;2024-03-02T11:21:04;100250.53;;;13.39;51.61
5651;BME280;40241;52.684;9.758;2024-03-02T11:23:33;100253.19;;;13.44;51.07
5651;BME280;40241;52.684;9.758;2024-03-02T11:26:21;100251.19;;;13.52;50.65
5651;BME280;40241;52.684;9.758;2024-03-02T11:28:47;100256.44;;;13.63;51.56
5651;BME280;40241;52.684;9.758;2024-03-02T11:31:12;100251.47;;;13.69;51.30
5651;BME280;40241;52.684;9.758;2024-03-02T11:33:37;100260.06;;;13.79;51.11
5651;BME280;40241;52.684;9.758;2024-03-02T11:36:03;100251.94;;;13.89;51.04
5651;BME280;40241;52.684;9.758;2024-03-02T11:38:31;100244.25;;;14.02;51.08
5651;BME280;40241;52.684;9.758;2024-03-02T11:40:58;100249.47;;;14.13;50.62
5651;BME280;40241;52.684;9.758;2024-03-02T11:43:25;100245.81;;;14.18;50.54
5651;BME280;40241;52.684;9.758;2024-03-02T11:46:04;100253.97;;;14.24;49.08
5651;BME280;40241;52.684;9.758;2024-03-02T11:48:32;100249.16;;;14.24;50.37
5651;BME280;40241;52.684;9.758;2024-03-02T11:50:59;100243.59;;;14.24;50.11
5651;BME280;40241;52.684;9.758;2024-03-02T11:53:26;100246.94;;;14.23;50.15
5651;BME280;40241;52.684;9.758;2024-03-02T11:55:55;100243.97;;;14.21;50.16
5651;BME280;40241;52.684;9.758;2024-03-02T11:58:20;100246.00;;;14.20;50.24
5651;BME280;40241;52.684;9.758;2024-03-02T12:00:52;100250.25;;;14.21;49.99
5651;BME280;40241;52.684;9.758;2024-03-02T12:03:20;100243.59;;;14.24;50.06
5651;BME280;40241;52.684;9.758;2024-03-02T12:05:49;100241.75;;;14.27;49.83
5651;BME280;40241;52.684;9.758;2024-03-02T12:08:14;100239.53;;;14.33;49.89
5651;BME280;40241;52.684;9.758;2024-03-02T12:10:40;100231.75;;;14.39;49.61
5651;BME280;40241;52.684;9.758;2024-03-02T12:13:06;100239.22;;;14.52;49.57
5651;BME280;40241;52.684;9.758;2024-03-02T12:15:37;100241.06;;;14.72;49.57
5651;BME280;40241;52.684;9.758;2024-03-02T12:18:04;100230.34;;;14.91;49.39
5651;BME280;40241;52.684;9.758;2024-03-02T12:20:31;100224.63;;;15.04;48.78
5651;BME280;40241;52.684;9.758;2024-03-02T12:23:01;100222.56;;;15.19;48.27
5651;BME280;40241;52.684;9.758;2024-03-02T12:25:27;100234.03;;;15.31;48.40
5651;BME280;40241;52.684;9.758;2024-03-02T12:27:54;100227.16;;;15.40;48.33
5651;BME280;40241;52.684;9.758;2024-03-02T12:30:20;100226.03;;;15.43;48.06
5651;BME280;40241;52.684;9.758;2024-03-02T12:32:46;100219.84;;;15.59;47.97
5651;BME280;40241;52.684;9.758;2024-03-02T12:35:13;100225.38;;;15.89;47.53
5651;BME280;40241;52.684;9.758;2024-03-02T12:37:45;100219.34;;;16.08;46.57
5651;BME280;40241;52.684;9.758;2024-03-02T12:40:12;100218.84;;;16.27;46.87
5651;BME280;40241;52.684;9.758;2024-03-02T12:42:39;100209.84;;;16.43;46.53
5651;BME280;40241;52.684;9.758;2024-03-02T12:45:05;100211.28;;;16.52;46.17
5651;BME280;40241;52.684;9.758;2024-03-02T12:47:31;100209.75;;;16.58;46.11
5651;BME280;40241;52.684;9.758;2024-03-02T12:49:58;100211.78;;;16.58;46.13
5651;BME280;40241;52.684;9.758;2024-03-02T12:52:23;100208.59;;;16.61;46.19
5651;BME280;40241;52.684;9.758;2024-03-02T12:54:49;100197.03;;;16.65;46.12
5651;BME280;40241;52.684;9.758;2024-03-02T12:57:21;100200.34;;;16.71;45.00
5651;BME280;40241;52.684;9.758;2024-03-02T12:59:46;100208.72;;;16.71;45.95
5651;BME280;40241;52.684;9.758;2024-03-02T13:02:18;100219.91;;;16.71;44.97
5651;BME280;40241;52.684;9.758;2024-03-02T13:04:44;100205.19;;;16.71;45.91